sensor_id;sensor_type;location;lat;lon;timestamp;P1;durP1;ratioP1;P2;durP2;ratioP2
920;SDS011;447;51.332;6.778;2023-02-02T00:01:36;9.53;;;5.27;;
920;SDS011;447;51.332;6.778;2023-02-02T00:04:03;10.20;;;4.00;;
920;SDS011;447;51.332;6.778;2023-02-02T00:06:29;11.17;;;3.83;;
920;SDS011;447;51.332;6.778;2023-02-02T00:08:57;12.77;;;3.37;;
920;SDS011;447;51.332;6.778;2023-02-02T00:11:27;10.57;;;3.53;;
920;SDS011;447;51.332;6.778;2023-02-02T00:13:55;8.50;;;3.77;;
920;SDS011;447;51.332;6.778;2023-02-02T00:18:51;10.83;;;3.30;;
920;SDS011;447;51.332;6.778;2023-02-02T00:21:20;16.97;;;3.90;;
920;SDS011;447;51.332;6.778;2023-02-02T00:23:46;8.07;;;3.30;;
920;SDS011;447;51.332;6.778;2023-02-02T00:26:12;13.73;;;3.27;;
920;SDS011;447;51.332;6.778;2023-02-02T00:28:38;11.80;;;3.70;;
920;SDS011;447;51.332;6.778;2023-02-02T00:31:04;12.60;;;3.97;;
920;SDS011;447;51.332;6.778;2023-02-02T00:33:33;14.40;;;3.53;;
920;SDS011;447;51.332;6.778;2023-02-02T00:36:00;19.10;;;4.70;;
920;SDS011;447;51.332;6.778;2023-02-02T00:38:29;11.90;;;3.37;;
920;SDS011;447;51.332;6.778;2023-02-02T00:41:01;13.40;;;3.70;;
920;SDS011;447;51.332;6.778;2023-02-02T00:43:27;10.10;;;3.70;;
920;SDS011;447;51.332;6.778;2023-02-02T00:45:55;10.03;;;3.77;;
920;SDS011;447;51.332;6.778;2023-02-02T00:48:24;9.73;;;3.40;;
920;SDS011;447;51.332;6.778;2023-02-02T00:50:52;8.40;;;2.90;;
920;SDS011;447;51.332;6.778;2023-02-02T00:53:19;8.67;;;3.07;;
920;SDS011;447;51.332;6.778;2023-02-02T00:55:46;16.90;;;3.63;;
920;SDS011;447;51.332;6.778;2023-02-02T00:58:12;16.23;;;4.50;;
920;SDS011;447;51.332;6.778;2023-02-02T01:00:37;11.20;;;4.00;;
920;SDS011;447;51.332;6.778;2023-02-02T01:03:09;8.43;;;3.40;;
920;SDS011;447;51.332;6.778;2023-02-02T01:05:40;8.40;;;3.90;;
920;SDS011;447;51.332;6.778;2023-02-02T01:08:09;13.87;;;3.73;;
920;SDS011;447;51.332;6.778;2023-02-02T01:10:38;9.83;;;3.90;;
920;SDS011;447;51.332;6.778;2023-02-02T01:13:04;12.23;;;3.23;;
920;SDS011;447;51.332;6.778;2023-02-02T01:15:30;12.27;;;3.80;;
920;SDS011;447;51.332;6.778;2023-02-02T01:17:56;12.43;;;3.73;;
920;SDS011;447;51.332;6.778;2023-02-02T01:20:24;7.67;;;3.57;;
920;SDS011;447;51.332;6.778;2023-02-02T01:22:51;10.27;;;3.33;;
920;SDS011;447;51.332;6.778;2023-02-02T01:25:17;10.40;;;4.00;;
920;SDS011;447;51.332;6.778;2023-02-02T01:27:45;18.90;;;4.03;;
920;SDS011;447;51.332;6.778;2023-02-02T01:30:16;9.97;;;4.60;;
920;SDS011;447;51.332;6.778;2023-02-02T01:32:48;15.53;;;4.70;;
920;SDS011;447;51.332;6.778;2023-02-02T01:35:15;10.07;;;3.90;;
920;SDS011;447;51.332;6.778;2023-02-02T01:37:43;9.73;;;4.47;;
920;SDS011;447;51.332;6.778;2023-02-02T01:40:12;15.13;;;4.70;;
920;SDS011;447;51.332;6.778;2023-02-02T01:42:38;17.83;;;4.70;;
920;SDS011;447;51.332;6.778;2023-02-02T01:45:16;12.77;;;3.80;;
920;SDS011;447;51.332;6.778;2023-02-02T01:47:51;9.77;;;4.70;;
920;SDS011;447;51.332;6.778;2023-02-02T01:50:23;13.27;;;4.10;;
920;SDS011;447;51.332;6.778;2023-02-02T01:52:57;8.10;;;4.67;;
920;SDS011;447;51.332;6.778;2023-02-02T01:55:30;15.17;;;4.50;;
920;SDS011;447;51.332;6.778;2023-02-02T01:58:17;12.87;;;4.53;;
920;SDS011;447;51.332;6.778;2023-02-02T02:00:47;9.20;;;4.23;;
920;SDS011;447;51.332;6.778;2023-02-02T02:03:14;10.60;;;4.37;;
920;SDS011;447;51.332;6.778;2023-02-02T02:05:46;18.00;;;4.50;;
920;SDS011;447;51.332;6.778;2023-02-02T02:08:18;13.27;;;4.80;;
920;SDS011;447;51.332;6.778;2023-02-02T02:10:46;8.43;;;3.63;;
920;SDS011;447;51.332;6.778;2023-02-02T02:13:15;8.27;;;4.07;;
920;SDS011;447;51.332;6.778;2023-02-02T02:16:00;11.63;;;4.73;;
920;SDS011;447;51.332;6.778;2023-02-02T02:18:55;13.13;;;4.43;;
920;SDS011;447;51.332;6.778;2023-02-02T02:21:39;9.37;;;3.80;;
920;SDS011;447;51.332;6.778;2023-02-02T02:28:15;10.93;;;4.00;;
920;SDS011;447;51.332;6.778;2023-02-02T02:34:36;7.83;;;3.97;;
920;SDS011;447;51.332;6.778;2023-02-02T02:37:08;12.93;;;4.40;;
920;SDS011;447;51.332;6.778;2023-02-02T02:39:51;15.80;;;4.67;;
920;SDS011;447;51.332;6.778;2023-02-02T02:42:26;10.53;;;5.00;;
920;SDS011;447;51.332;6.778;2023-02-02T02:44:55;13.57;;;4.43;;
920;SDS011;447;51.332;6.778;2023-02-02T02:47:29;6.33;;;3.53;;
920;SDS011;447;51.332;6.778;2023-02-02T02:49:58;7.47;;;4.60;;
920;SDS011;447;51.332;6.778;2023-02-02T02:52:26;13.10;;;4.47;;
920;SDS011;447;51.332;6.778;2023-02-02T02:54:52;12.33;;;5.87;;
920;SDS011;447;51.332;6.778;2023-02-02T03:07:40;9.80;;;3.90;;
920;SDS011;447;51.332;6.778;2023-02-02T03:10:13;8.40;;;3.70;;
920;SDS011;447;51.332;6.778;2023-02-02T03:12:46;13.43;;;3.83;;
920;SDS011;447;51.332;6.778;2023-02-02T03:15:16;11.60;;;3.80;;
920;SDS011;447;51.332;6.778;2023-02-02T03:17:46;11.63;;;4.17;;
920;SDS011;447;51.332;6.778;2023-02-02T03:20:14;8.60;;;3.60;;
920;SDS011;447;51.332;6.778;2023-02-02T03:22:43;15.73;;;4.60;;
920;SDS011;447;51.332;6.778;2023-02-02T03:25:09;11.03;;;3.80;;
920;SDS011;447;51.332;6.778;2023-02-02T03:27:38;11.03;;;3.93;;
920;SDS011;447;51.332;6.778;2023-02-02T03:30:05;8.40;;;3.43;;
920;SDS011;447;51.332;6.778;2023-02-02T03:32:37;10.80;;;3.93;;
920;SDS011;447;51.332;6.778;2023-02-02T03:35:09;11.27;;;3.30;;
920;SDS011;447;51.332;6.778;2023-02-02T03:37:35;14.90;;;4.07;;
920;SDS011;447;51.332;6.778;2023-02-02T03:40:03;9.80;;;3.93;;
920;SDS011;447;51.332;6.778;2023-02-02T03:42:30;10.77;;;4.33;;
920;SDS011;447;51.332;6.778;2023-02-02T03:44:56;18.57;;;4.20;;
920;SDS011;447;51.332;6.778;2023-02-02T03:47:27;11.80;;;3.80;;
920;SDS011;447;51.332;6.778;2023-02-02T03:49:55;14.97;;;3.47;;
920;SDS011;447;51.332;6.778;2023-02-02T03:52:22;15.40;;;4.20;;
920;SDS011;447;51.332;6.778;2023-02-02T03:54:50;15.20;;;4.87;;
920;SDS011;447;51.332;6.778;2023-02-02T03:57:21;8.57;;;4.47;;
920;SDS011;447;51.332;6.778;2023-02-02T03:59:52;18.03;;;4.83;;
920;SDS011;447;51.332;6.778;2023-02-02T04:02:20;9.33;;;4.43;;
920;SDS011;447;51.332;6.778;2023-02-02T04:04:49;7.93;;;3.40;;
920;SDS011;447;51.332;6.778;2023-02-02T04:07:15;15.63;;;4.60;;
920;SDS011;447;51.332;6.778;2023-02-02T04:09:45;9.13;;;4.50;;
920;SDS011;447;51.332;6.778;2023-02-02T04:12:12;13.40;;;4.00;;
920;SDS011;447;51.332;6.778;2023-02-02T04:14:40;11.90;;;3.80;;
920;SDS011;447;51.332;6.778;2023-02-02T04:17:06;13.37;;;4.50;;
920;SDS011;447;51.332;6.778;2023-02-02T04:19:35;6.90;;;3.30;;
920;SDS011;447;51.332;6.778;2023-02-02T04:22:01;9.73;;;4.07;;
920;SDS011;447;51.332;6.778;2023-02-02T04:24:30;12.90;;;4.97;;
920;SDS011;447;51.332;6.778;2023-02-02T04:26:56;13.43;;;4.00;;
920;SDS011;447;51.332;6.778;2023-02-02T04:29:24;7.77;;;3.60;;
920;SDS011;447;51.332;6.778;2023-02-02T04:31:50;9.53;;;4.03;;
920;SDS011;447;51.332;6.778;2023-02-02T04:34:19;14.87;;;4.73;;
920;SDS011;447;51.332;6.778;2023-02-02T04:36:47;9.30;;;3.97;;
920;SDS011;447;51.332;6.778;2023-02-02T04:39:15;14.90;;;4.43;;
920;SDS011;447;51.332;6.778;2023-02-02T04:41:43;12.47;;;3.80;;
920;SDS011;447;51.332;6.778;2023-02-02T04:44:12;17.10;;;4.67;;
920;SDS011;447;51.332;6.778;2023-02-02T04:46:42;10.60;;;3.93;;
920;SDS011;447;51.332;6.778;2023-02-02T04:49:09;9.37;;;4.60;;
920;SDS011;447;51.332;6.778;2023-02-02T04:51:38;13.03;;;4.80;;
920;SDS011;447;51.332;6.778;2023-02-02T04:54:07;13.50;;;3.87;;
920;SDS011;447;51.332;6.778;2023-02-02T04:56:35;12.67;;;4.63;;
920;SDS011;447;51.332;6.778;2023-02-02T04:59:04;15.87;;;4.70;;
920;SDS011;447;51.332;6.778;2023-02-02T05:01:30;8.33;;;4.30;;
920;SDS011;447;51.332;6.778;2023-02-02T05:03:58;14.60;;;5.40;;
920;SDS011;447;51.332;6.778;2023-02-02T05:06:26;9.80;;;4.50;;
920;SDS011;447;51.332;6.778;2023-02-02T05:08:53;12.93;;;4.90;;
920;SDS011;447;51.332;6.778;2023-02-02T05:11:21;13.50;;;4.17;;
920;SDS011;447;51.332;6.778;2023-02-02T05:13:55;10.50;;;4.97;;
920;SDS011;447;51.332;6.778;2023-02-02T05:16:26;13.27;;;5.00;;
920;SDS011;447;51.332;6.778;2023-02-02T05:18:53;13.23;;;4.27;;
920;SDS011;447;51.332;6.778;2023-02-02T05:21:25;12.83;;;4.00;;
920;SDS011;447;51.332;6.778;2023-02-02T05:23:54;15.67;;;5.17;;
920;SDS011;447;51.332;6.778;2023-02-02T05:26:24;16.60;;;4.80;;
920;SDS011;447;51.332;6.778;2023-02-02T05:28:52;13.20;;;3.90;;
920;SDS011;447;51.332;6.778;2023-02-02T05:31:21;18.70;;;5.47;;
920;SDS011;447;51.332;6.778;2023-02-02T05:33:49;12.80;;;3.83;;
920;SDS011;447;51.332;6.778;2023-02-02T05:36:18;12.33;;;5.07;;
920;SDS011;447;51.332;6.778;2023-02-02T05:38:46;11.57;;;5.47;;
920;SDS011;447;51.332;6.778;2023-02-02T05:41:12;15.30;;;4.77;;
920;SDS011;447;51.332;6.778;2023-02-02T05:43:38;10.53;;;5.20;;
920;SDS011;447;51.332;6.778;2023-02-02T05:46:04;13.70;;;4.60;;
920;SDS011;447;51.332;6.778;2023-02-02T05:48:30;11.67;;;5.17;;
920;SDS011;447;51.332;6.778;2023-02-02T05:51:00;9.70;;;4.20;;
920;SDS011;447;51.332;6.778;2023-02-02T05:53:40;10.97;;;4.60;;
920;SDS011;447;51.332;6.778;2023-02-02T05:56:09;10.17;;;3.87;;
920;SDS011;447;51.332;6.778;2023-02-02T05:58:36;13.33;;;3.97;;
920;SDS011;447;51.332;6.778;2023-02-02T06:01:02;18.00;;;5.33;;
920;SDS011;447;51.332;6.778;2023-02-02T06:03:30;10.27;;;3.93;;
920;SDS011;447;51.332;6.778;2023-02-02T06:05:56;12.93;;;4.80;;
920;SDS011;447;51.332;6.778;2023-02-02T06:08:25;9.37;;;4.30;;
920;SDS011;447;51.332;6.778;2023-02-02T06:10:53;10.20;;;4.70;;
920;SDS011;447;51.332;6.778;2023-02-02T06:13:21;11.37;;;3.80;;
920;SDS011;447;51.332;6.778;2023-02-02T06:15:50;10.10;;;4.63;;
920;SDS011;447;51.332;6.778;2023-02-02T06:18:16;10.53;;;4.07;;
920;SDS011;447;51.332;6.778;2023-02-02T06:20:42;8.60;;;4.00;;
920;SDS011;447;51.332;6.778;2023-02-02T06:23:08;9.97;;;4.03;;
920;SDS011;447;51.332;6.778;2023-02-02T06:25:37;13.53;;;4.43;;
920;SDS011;447;51.332;6.778;2023-02-02T06:28:03;9.70;;;4.00;;
920;SDS011;447;51.332;6.778;2023-02-02T06:30:29;7.13;;;4.10;;
920;SDS011;447;51.332;6.778;2023-02-02T06:32:59;14.23;;;3.77;;
920;SDS011;447;51.332;6.778;2023-02-02T06:35:25;13.57;;;4.30;;
920;SDS011;447;51.332;6.778;2023-02-02T06:37:51;11.73;;;4.90;;
920;SDS011;447;51.332;6.778;2023-02-02T06:40:17;13.90;;;4.43;;
920;SDS011;447;51.332;6.778;2023-02-02T06:42:46;12.00;;;5.00;;
920;SDS011;447;51.332;6.778;2023-02-02T06:45:12;12.13;;;4.33;;
920;SDS011;447;51.332;6.778;2023-02-02T06:47:38;9.60;;;4.30;;
920;SDS011;447;51.332;6.778;2023-02-02T06:50:08;18.20;;;5.13;;
920;SDS011;447;51.332;6.778;2023-02-02T06:52:37;11.43;;;4.20;;
920;SDS011;447;51.332;6.778;2023-02-02T06:55:03;9.93;;;4.00;;
920;SDS011;447;51.332;6.778;2023-02-02T06:57:29;14.27;;;4.80;;
920;SDS011;447;51.332;6.778;2023-02-02T06:59:55;10.63;;;4.47;;
920;SDS011;447;51.332;6.778;2023-02-02T07:02:21;11.63;;;4.53;;
920;SDS011;447;51.332;6.778;2023-02-02T07:04:48;12.23;;;4.10;;
920;SDS011;447;51.332;6.778;2023-02-02T07:07:19;10.03;;;4.63;;
920;SDS011;447;51.332;6.778;2023-02-02T07:09:45;18.27;;;5.63;;
920;SDS011;447;51.332;6.778;2023-02-02T07:12:13;12.03;;;4.70;;
920;SDS011;447;51.332;6.778;2023-02-02T07:14:45;12.73;;;4.90;;
920;SDS011;447;51.332;6.778;2023-02-02T07:17:17;14.83;;;4.53;;
920;SDS011;447;51.332;6.778;2023-02-02T07:19:43;12.53;;;5.10;;
920;SDS011;447;51.332;6.778;2023-02-02T07:22:11;14.13;;;5.60;;
920;SDS011;447;51.332;6.778;2023-02-02T07:24:37;12.77;;;4.70;;
920;SDS011;447;51.332;6.778;2023-02-02T07:27:03;9.40;;;5.00;;
920;SDS011;447;51.332;6.778;2023-02-02T07:29:30;13.77;;;4.60;;
920;SDS011;447;51.332;6.778;2023-02-02T07:31:56;12.07;;;4.80;;
920;SDS011;447;51.332;6.778;2023-02-02T07:34:22;15.43;;;5.13;;
920;SDS011;447;51.332;6.778;2023-02-02T07:36:50;15.90;;;5.03;;
920;SDS011;447;51.332;6.778;2023-02-02T07:39:24;14.40;;;4.60;;
920;SDS011;447;51.332;6.778;2023-02-02T07:41:50;20.93;;;5.00;;
920;SDS011;447;51.332;6.778;2023-02-02T07:44:28;13.20;;;4.95;;
920;SDS011;447;51.332;6.778;2023-02-02T07:46:59;11.30;;;4.90;;
920;SDS011;447;51.332;6.778;2023-02-02T07:49:25;9.83;;;5.03;;
920;SDS011;447;51.332;6.778;2023-02-02T07:51:55;11.87;;;5.43;;
920;SDS011;447;51.332;6.778;2023-02-02T07:54:22;15.43;;;5.60;;
920;SDS011;447;51.332;6.778;2023-02-02T07:56:48;13.77;;;5.10;;
920;SDS011;447;51.332;6.778;2023-02-02T07:59:14;15.27;;;5.60;;
920;SDS011;447;51.332;6.778;2023-02-02T08:01:40;12.03;;;5.43;;
920;SDS011;447;51.332;6.778;2023-02-02T08:04:06;9.60;;;4.80;;
920;SDS011;447;51.332;6.778;2023-02-02T08:06:38;12.00;;;5.33;;
920;SDS011;447;51.332;6.778;2023-02-02T08:09:09;12.27;;;5.70;;
920;SDS011;447;51.332;6.778;2023-02-02T08:11:36;12.37;;;4.90;;
920;SDS011;447;51.332;6.778;2023-02-02T08:14:02;11.53;;;5.87;;
920;SDS011;447;51.332;6.778;2023-02-02T08:16:32;10.00;;;4.80;;
920;SDS011;447;51.332;6.778;2023-02-02T08:19:01;10.93;;;4.83;;
920;SDS011;447;51.332;6.778;2023-02-02T08:21:27;10.90;;;4.93;;
920;SDS011;447;51.332;6.778;2023-02-02T08:23:56;15.87;;;5.57;;
920;SDS011;447;51.332;6.778;2023-02-02T08:26:25;21.83;;;6.10;;
920;SDS011;447;51.332;6.778;2023-02-02T08:29:01;11.23;;;5.20;;
920;SDS011;447;51.332;6.778;2023-02-02T08:31:34;11.40;;;5.47;;
920;SDS011;447;51.332;6.778;2023-02-02T08:34:02;9.67;;;5.77;;
920;SDS011;447;51.332;6.778;2023-02-02T08:36:33;10.70;;;5.00;;
920;SDS011;447;51.332;6.778;2023-02-02T08:39:04;9.27;;;5.67;;
920;SDS011;447;51.332;6.778;2023-02-02T08:41:35;16.13;;;6.03;;
920;SDS011;447;51.332;6.778;2023-02-02T08:44:05;16.80;;;6.20;;
920;SDS011;447;51.332;6.778;2023-02-02T08:46:32;10.93;;;5.07;;
920;SDS011;447;51.332;6.778;2023-02-02T08:48:58;11.20;;;5.77;;
920;SDS011;447;51.332;6.778;2023-02-02T08:51:24;9.07;;;5.30;;
920;SDS011;447;51.332;6.778;2023-02-02T08:53:50;8.70;;;4.77;;
920;SDS011;447;51.332;6.778;2023-02-02T08:56:17;11.93;;;5.53;;
920;SDS011;447;51.332;6.778;2023-02-02T08:58:48;13.80;;;6.00;;
920;SDS011;447;51.332;6.778;2023-02-02T09:01:21;17.63;;;5.90;;
920;SDS011;447;51.332;6.778;2023-02-02T09:03:54;9.40;;;5.60;;
920;SDS011;447;51.332;6.778;2023-02-02T09:06:28;14.40;;;5.67;;
920;SDS011;447;51.332;6.778;2023-02-02T09:09:04;14.50;;;6.10;;
920;SDS011;447;51.332;6.778;2023-02-02T09:11:39;12.70;;;6.30;;
920;SDS011;447;51.332;6.778;2023-02-02T09:14:07;18.30;;;6.80;;
920;SDS011;447;51.332;6.778;2023-02-02T09:16:34;16.70;;;6.70;;
920;SDS011;447;51.332;6.778;2023-02-02T09:19:03;13.05;;;6.22;;
920;SDS011;447;51.332;6.778;2023-02-02T09:21:32;10.60;;;6.30;;
920;SDS011;447;51.332;6.778;2023-02-02T09:24:05;10.03;;;6.27;;
920;SDS011;447;51.332;6.778;2023-02-02T09:26:35;11.47;;;6.20;;
920;SDS011;447;51.332;6.778;2023-02-02T09:29:04;12.13;;;6.40;;
920;SDS011;447;51.332;6.778;2023-02-02T09:31:35;10.50;;;6.27;;
920;SDS011;447;51.332;6.778;2023-02-02T09:34:03;12.00;;;6.00;;
920;SDS011;447;51.332;6.778;2023-02-02T09:36:33;19.23;;;7.00;;
920;SDS011;447;51.332;6.778;2023-02-02T09:38:59;10.67;;;6.10;;
920;SDS011;447;51.332;6.778;2023-02-02T09:44:10;10.30;;;5.20;;
920;SDS011;447;51.332;6.778;2023-02-02T09:52:58;9.10;;;5.30;;
920;SDS011;447;51.332;6.778;2023-02-02T09:55:39;14.70;;;6.37;;
920;SDS011;447;51.332;6.778;2023-02-02T09:58:12;19.53;;;7.47;;
920;SDS011;447;51.332;6.778;2023-02-02T10:01:00;10.43;;;5.80;;
920;SDS011;447;51.332;6.778;2023-02-02T10:03:56;10.13;;;7.03;;
920;SDS011;447;51.332;6.778;2023-02-02T10:11:59;14.33;;;5.43;;
920;SDS011;447;51.332;6.778;2023-02-02T10:14:44;9.00;;;4.70;;
920;SDS011;447;51.332;6.778;2023-02-02T10:23:05;10.17;;;5.27;;
920;SDS011;447;51.332;6.778;2023-02-02T10:25:53;12.00;;;5.70;;
920;SDS011;447;51.332;6.778;2023-02-02T10:28:30;9.97;;;5.67;;
920;SDS011;447;51.332;6.778;2023-02-02T10:31:16;13.23;;;5.50;;
920;SDS011;447;51.332;6.778;2023-02-02T10:34:12;13.60;;;5.90;;
920;SDS011;447;51.332;6.778;2023-02-02T10:45:30;9.33;;;5.47;;
920;SDS011;447;51.332;6.778;2023-02-02T10:48:03;12.60;;;5.50;;
920;SDS011;447;51.332;6.778;2023-02-02T10:50:36;15.50;;;6.30;;
920;SDS011;447;51.332;6.778;2023-02-02T10:53:09;12.77;;;6.10;;
920;SDS011;447;51.332;6.778;2023-02-02T10:55:57;11.03;;;6.83;;
920;SDS011;447;51.332;6.778;2023-02-02T10:58:43;11.43;;;6.10;;
920;SDS011;447;51.332;6.778;2023-02-02T11:01:43;16.20;;;6.10;;
920;SDS011;447;51.332;6.778;2023-02-02T11:04:09;13.47;;;5.50;;
920;SDS011;447;51.332;6.778;2023-02-02T11:06:54;9.00;;;6.77;;
920;SDS011;447;51.332;6.778;2023-02-02T11:09:34;10.57;;;5.97;;
920;SDS011;447;51.332;6.778;2023-02-02T11:14:59;12.87;;;5.70;;
920;SDS011;447;51.332;6.778;2023-02-02T11:17:33;9.37;;;5.90;;
920;SDS011;447;51.332;6.778;2023-02-02T11:20:00;12.57;;;6.20;;
920;SDS011;447;51.332;6.778;2023-02-02T11:24:54;7.40;;;5.77;;
920;SDS011;447;51.332;6.778;2023-02-02T11:27:37;10.13;;;5.57;;
920;SDS011;447;51.332;6.778;2023-02-02T11:30:11;10.03;;;6.13;;
920;SDS011;447;51.332;6.778;2023-02-02T11:32:50;10.50;;;6.40;;
920;SDS011;447;51.332;6.778;2023-02-02T11:35:17;16.60;;;5.60;;
920;SDS011;447;51.332;6.778;2023-02-02T11:38:04;8.67;;;5.63;;
920;SDS011;447;51.332;6.778;2023-02-02T11:40:43;11.77;;;5.83;;
920;SDS011;447;51.332;6.778;2023-02-02T11:43:26;15.60;;;8.03;;
920;SDS011;447;51.332;6.778;2023-02-02T11:45:58;11.13;;;5.57;;
920;SDS011;447;51.332;6.778;2023-02-02T11:48:37;14.27;;;6.60;;
920;SDS011;447;51.332;6.778;2023-02-02T11:51:04;14.33;;;5.23;;
920;SDS011;447;51.332;6.778;2023-02-02T11:53:47;12.60;;;5.10;;
920;SDS011;447;51.332;6.778;2023-02-02T11:56:17;13.87;;;5.50;;
920;SDS011;447;51.332;6.778;2023-02-02T12:01:35;13.97;;;5.60;;
920;SDS011;447;51.332;6.778;2023-02-02T12:06:41;10.90;;;5.27;;
920;SDS011;447;51.332;6.778;2023-02-02T12:09:13;10.30;;;5.00;;
920;SDS011;447;51.332;6.778;2023-02-02T12:16:52;10.67;;;5.40;;
920;SDS011;447;51.332;6.778;2023-02-02T12:19:34;10.90;;;5.80;;
920;SDS011;447;51.332;6.778;2023-02-02T12:28:29;10.73;;;5.27;;
920;SDS011;447;51.332;6.778;2023-02-02T12:37:01;9.43;;;5.10;;
920;SDS011;447;51.332;6.778;2023-02-02T12:42:52;7.70;;;4.10;;
920;SDS011;447;51.332;6.778;2023-02-02T12:48:56;10.20;;;5.10;;
920;SDS011;447;51.332;6.778;2023-02-02T12:57:15;14.83;;;5.73;;
920;SDS011;447;51.332;6.778;2023-02-02T13:00:21;8.07;;;5.40;;
920;SDS011;447;51.332;6.778;2023-02-02T13:14:06;6.67;;;4.50;;
920;SDS011;447;51.332;6.778;2023-02-02T13:16:43;11.97;;;5.67;;
920;SDS011;447;51.332;6.778;2023-02-02T13:19:37;15.50;;;4.73;;
920;SDS011;447;51.332;6.778;2023-02-02T13:22:11;6.97;;;4.30;;
920;SDS011;447;51.332;6.778;2023-02-02T13:24:46;10.07;;;6.23;;
920;SDS011;447;51.332;6.778;2023-02-02T13:27:19;9.63;;;5.10;;
920;SDS011;447;51.332;6.778;2023-02-02T13:30:09;11.27;;;5.83;;
920;SDS011;447;51.332;6.778;2023-02-02T13:32:42;8.82;;;4.55;;
920;SDS011;447;51.332;6.778;2023-02-02T13:40:39;15.03;;;4.73;;
920;SDS011;447;51.332;6.778;2023-02-02T13:48:52;12.53;;;4.60;;
920;SDS011;447;51.332;6.778;2023-02-02T13:57:34;9.90;;;5.50;;
920;SDS011;447;51.332;6.778;2023-02-02T14:00:17;11.77;;;5.50;;
920;SDS011;447;51.332;6.778;2023-02-02T14:02:52;9.47;;;5.50;;
920;SDS011;447;51.332;6.778;2023-02-02T14:05:41;10.50;;;5.43;;
920;SDS011;447;51.332;6.778;2023-02-02T14:10:54;7.23;;;5.40;;
920;SDS011;447;51.332;6.778;2023-02-02T14:18:58;16.50;;;6.97;;
920;SDS011;447;51.332;6.778;2023-02-02T14:27:01;10.13;;;6.90;;
920;SDS011;447;51.332;6.778;2023-02-02T14:29:58;9.20;;;5.90;;
920;SDS011;447;51.332;6.778;2023-02-02T14:42:49;11.37;;;7.17;;
920;SDS011;447;51.332;6.778;2023-02-02T14:45:48;9.97;;;6.60;;
920;SDS011;447;51.332;6.778;2023-02-02T14:48:37;11.27;;;7.10;;
920;SDS011;447;51.332;6.778;2023-02-02T14:53:47;7.83;;;6.90;;
920;SDS011;447;51.332;6.778;2023-02-02T14:56:16;13.60;;;7.70;;
920;SDS011;447;51.332;6.778;2023-02-02T14:58:52;9.33;;;6.87;;
920;SDS011;447;51.332;6.778;2023-02-02T15:01:24;14.27;;;8.67;;
920;SDS011;447;51.332;6.778;2023-02-02T15:22:54;11.70;;;10.10;;
920;SDS011;447;51.332;6.778;2023-02-02T15:25:36;14.57;;;9.73;;
920;SDS011;447;51.332;6.778;2023-02-02T15:31:36;13.00;;;9.07;;
920;SDS011;447;51.332;6.778;2023-02-02T15:33:36;17.83;;;10.17;;
920;SDS011;447;51.332;6.778;2023-02-02T15:36:09;14.87;;;9.80;;
920;SDS011;447;51.332;6.778;2023-02-02T15:38:57;12.97;;;10.30;;
920;SDS011;447;51.332;6.778;2023-02-02T15:41:33;15.17;;;9.90;;
920;SDS011;447;51.332;6.778;2023-02-02T15:44:19;15.13;;;10.70;;
920;SDS011;447;51.332;6.778;2023-02-02T15:46:50;12.30;;;10.03;;
920;SDS011;447;51.332;6.778;2023-02-02T15:51:52;22.20;;;10.77;;
920;SDS011;447;51.332;6.778;2023-02-02T15:54:27;19.53;;;10.97;;
920;SDS011;447;51.332;6.778;2023-02-02T15:56:58;18.33;;;11.80;;
920;SDS011;447;51.332;6.778;2023-02-02T15:59:27;17.77;;;11.83;;
920;SDS011;447;51.332;6.778;2023-02-02T16:04:34;18.33;;;11.07;;
920;SDS011;447;51.332;6.778;2023-02-02T16:07:03;13.67;;;10.70;;
920;SDS011;447;51.332;6.778;2023-02-02T16:09:34;16.00;;;11.03;;
920;SDS011;447;51.332;6.778;2023-02-02T16:12:04;16.63;;;11.70;;
920;SDS011;447;51.332;6.778;2023-02-02T16:14:31;17.73;;;11.50;;
920;SDS011;447;51.332;6.778;2023-02-02T16:19:57;19.47;;;12.97;;
920;SDS011;447;51.332;6.778;2023-02-02T16:22:35;16.07;;;10.77;;
920;SDS011;447;51.332;6.778;2023-02-02T16:25:04;16.10;;;11.23;;
920;SDS011;447;51.332;6.778;2023-02-02T16:27:34;21.60;;;12.70;;
920;SDS011;447;51.332;6.778;2023-02-02T16:30:05;17.50;;;12.37;;
920;SDS011;447;51.332;6.778;2023-02-02T16:32:36;17.47;;;12.43;;
920;SDS011;447;51.332;6.778;2023-02-02T16:35:24;17.73;;;11.07;;
920;SDS011;447;51.332;6.778;2023-02-02T16:40:45;21.00;;;13.00;;
920;SDS011;447;51.332;6.778;2023-02-02T16:48:33;16.90;;;11.50;;
920;SDS011;447;51.332;6.778;2023-02-02T16:53:44;20.63;;;12.43;;
920;SDS011;447;51.332;6.778;2023-02-02T16:56:29;21.73;;;13.00;;
920;SDS011;447;51.332;6.778;2023-02-02T16:58:55;16.70;;;11.67;;
920;SDS011;447;51.332;6.778;2023-02-02T17:01:31;16.33;;;13.10;;
920;SDS011;447;51.332;6.778;2023-02-02T17:04:01;22.67;;;13.33;;
920;SDS011;447;51.332;6.778;2023-02-02T17:06:29;20.30;;;14.10;;
920;SDS011;447;51.332;6.778;2023-02-02T17:09:12;20.17;;;13.90;;
920;SDS011;447;51.332;6.778;2023-02-02T17:12:49;14.93;;;12.40;;
920;SDS011;447;51.332;6.778;2023-02-02T17:17:24;19.27;;;13.00;;
920;SDS011;447;51.332;6.778;2023-02-02T17:19:51;15.80;;;13.17;;
920;SDS011;447;51.332;6.778;2023-02-02T17:22:21;17.00;;;13.20;;
920;SDS011;447;51.332;6.778;2023-02-02T17:24:49;16.27;;;12.40;;
920;SDS011;447;51.332;6.778;2023-02-02T17:27:20;15.93;;;12.87;;
920;SDS011;447;51.332;6.778;2023-02-02T17:29:52;14.90;;;13.30;;
920;SDS011;447;51.332;6.778;2023-02-02T17:32:19;17.67;;;13.60;;
920;SDS011;447;51.332;6.778;2023-02-02T17:34:47;18.00;;;13.07;;
920;SDS011;447;51.332;6.778;2023-02-02T17:37:13;19.93;;;14.00;;
920;SDS011;447;51.332;6.778;2023-02-02T17:39:42;19.93;;;13.30;;
920;SDS011;447;51.332;6.778;2023-02-02T17:42:26;17.27;;;13.57;;
920;SDS011;447;51.332;6.778;2023-02-02T17:44:52;16.13;;;12.83;;
920;SDS011;447;51.332;6.778;2023-02-02T17:47:18;18.40;;;14.20;;
920;SDS011;447;51.332;6.778;2023-02-02T17:49:44;16.98;;;13.20;;
920;SDS011;447;51.332;6.778;2023-02-02T17:52:12;21.43;;;13.73;;
920;SDS011;447;51.332;6.778;2023-02-02T17:54:39;19.03;;;13.23;;
920;SDS011;447;51.332;6.778;2023-02-02T17:57:04;18.30;;;14.47;;
920;SDS011;447;51.332;6.778;2023-02-02T17:59:30;20.47;;;14.97;;
920;SDS011;447;51.332;6.778;2023-02-02T18:01:59;18.80;;;13.17;;
920;SDS011;447;51.332;6.778;2023-02-02T18:04:26;15.13;;;13.50;;
920;SDS011;447;51.332;6.778;2023-02-02T18:06:52;15.83;;;13.30;;
920;SDS011;447;51.332;6.778;2023-02-02T18:09:18;17.60;;;13.27;;
920;SDS011;447;51.332;6.778;2023-02-02T18:11:44;19.40;;;14.27;;
920;SDS011;447;51.332;6.778;2023-02-02T18:14:12;17.67;;;14.47;;
920;SDS011;447;51.332;6.778;2023-02-02T18:16:38;17.63;;;13.67;;
920;SDS011;447;51.332;6.778;2023-02-02T18:19:04;23.53;;;13.57;;
920;SDS011;447;51.332;6.778;2023-02-02T18:21:32;19.97;;;14.37;;
920;SDS011;447;51.332;6.778;2023-02-02T18:23:58;21.27;;;14.80;;
920;SDS011;447;51.332;6.778;2023-02-02T18:26:31;19.20;;;13.80;;
920;SDS011;447;51.332;6.778;2023-02-02T18:29:01;19.63;;;14.90;;
920;SDS011;447;51.332;6.778;2023-02-02T18:31:27;21.00;;;14.93;;
920;SDS011;447;51.332;6.778;2023-02-02T18:33:56;18.67;;;14.30;;
920;SDS011;447;51.332;6.778;2023-02-02T18:36:22;18.10;;;14.70;;
920;SDS011;447;51.332;6.778;2023-02-02T18:38:49;20.27;;;15.33;;
920;SDS011;447;51.332;6.778;2023-02-02T18:41:18;19.67;;;14.37;;
920;SDS011;447;51.332;6.778;2023-02-02T18:43:45;19.53;;;14.70;;
920;SDS011;447;51.332;6.778;2023-02-02T18:46:13;21.93;;;15.50;;
920;SDS011;447;51.332;6.778;2023-02-02T18:48:40;17.47;;;14.50;;
920;SDS011;447;51.332;6.778;2023-02-02T18:51:11;20.83;;;14.80;;
920;SDS011;447;51.332;6.778;2023-02-02T18:53:44;20.87;;;14.47;;
920;SDS011;447;51.332;6.778;2023-02-02T18:56:12;20.10;;;14.73;;
920;SDS011;447;51.332;6.778;2023-02-02T18:58:38;18.43;;;14.73;;
920;SDS011;447;51.332;6.778;2023-02-02T19:01:08;17.57;;;13.43;;
920;SDS011;447;51.332;6.778;2023-02-02T19:03:39;18.97;;;14.37;;